createdAt,value
2023-07-30T00:00:56.538Z,93.01
2023-07-30T00:01:56.513Z,92.71
2023-07-30T00:02:56.660Z,92.61
2023-07-30T00:03:56.606Z,92.35
2023-07-30T00:04:56.485Z,92.21
2023-07-30T00:05:56.525Z,93.26
2023-07-30T00:06:56.462Z,93.01
2023-07-30T00:07:56.509Z,92.85
2023-07-30T00:08:56.453Z,92.85
2023-07-30T00:09:56.438Z,92.85
2023-07-30T00:10:56.424Z,93.16
2023-07-30T00:11:56.448Z,93.16
2023-07-30T00:12:56.401Z,92.96
2023-07-30T00:13:56.450Z,92.85
2023-07-30T00:14:56.398Z,92.85
2023-07-30T00:15:56.472Z,92.96
2023-07-30T00:16:56.341Z,93.26
2023-07-30T00:17:56.414Z,93.26
2023-07-30T00:18:56.331Z,92.25
2023-07-30T00:19:56.335Z,92.55
2023-07-30T00:20:56.386Z,92.25
2023-07-30T00:21:56.350Z,92.25
2023-07-30T00:22:56.298Z,92.35
2023-07-30T00:23:56.303Z,92.25
2023-07-30T00:24:56.271Z,92.14
2023-07-30T00:25:56.322Z,92.35
2023-07-30T00:26:56.266Z,92.45
2023-07-30T00:27:56.325Z,92.40
2023-07-30T00:28:56.239Z,92.49
2023-07-30T00:29:56.228Z,91.99
2023-07-30T00:30:56.221Z,91.89
2023-07-30T00:31:56.204Z,92.09
2023-07-30T00:32:56.264Z,92.29
2023-07-30T00:33:56.171Z,92.19
2023-07-30T00:34:56.161Z,92.29
2023-07-30T00:35:56.193Z,91.89
2023-07-30T00:36:56.156Z,91.99
2023-07-30T00:37:56.237Z,92.19
2023-07-30T00:38:56.121Z,92.09
2023-07-30T00:39:56.102Z,91.78
2023-07-30T00:40:56.149Z,92.19
2023-07-30T00:41:56.090Z,91.73
2023-07-30T00:42:56.152Z,92.13
2023-07-30T00:43:56.074Z,91.63
2023-07-30T00:44:56.054Z,91.73
2023-07-30T00:45:56.056Z,91.53
2023-07-30T00:46:56.116Z,91.63
2023-07-30T00:47:56.063Z,91.32
2023-07-30T00:48:56.066Z,91.22
2023-07-30T00:49:56.004Z,91.73
2023-07-30T00:50:56.004Z,91.32
2023-07-30T00:51:56.096Z,91.32
2023-07-30T00:52:56.034Z,91.63
2023-07-30T00:53:56.003Z,90.92
2023-07-30T00:54:55.974Z,91.53
2023-07-30T00:55:55.953Z,91.22
2023-07-30T00:56:55.978Z,90.82
2023-07-30T00:57:55.917Z,91.02
2023-07-30T00:58:55.943Z,90.92
2023-07-30T00:59:55.885Z,91.02
2023-07-30T01:00:55.985Z,90.72
2023-07-30T01:01:55.862Z,91.32
2023-07-30T01:02:55.906Z,91.32
2023-07-30T01:03:55.871Z,91.37
2023-07-30T01:04:55.851Z,91.27
2023-07-30T01:05:55.877Z,91.42
2023-07-30T01:06:55.815Z,90.96
2023-07-30T01:07:55.822Z,91.32
2023-07-30T01:08:55.794Z,91.37
2023-07-30T01:09:55.782Z,91.37
2023-07-30T01:10:55.834Z,91.47
2023-07-30T01:11:55.754Z,91.22
2023-07-30T01:12:55.728Z,91.57
2023-07-30T01:13:55.809Z,90.66
2023-07-30T01:14:55.726Z,90.86
2023-07-30T01:15:55.773Z,91.37
2023-07-30T01:16:55.775Z,91.37
2023-07-30T01:17:55.704Z,91.47
2023-07-30T01:18:55.725Z,91.27
2023-07-30T01:19:55.669Z,91.57
2023-07-30T01:20:55.703Z,90.96
2023-07-30T01:21:55.692Z,91.37
2023-07-30T01:22:55.670Z,91.47
2023-07-30T01:23:55.634Z,91.57
2023-07-30T01:24:55.605Z,91.37
2023-07-30T01:25:55.655Z,91.27
2023-07-30T01:26:55.648Z,91.37
2023-07-30T01:27:55.605Z,91.41
2023-07-30T01:28:55.602Z,91.67
2023-07-30T01:29:55.623Z,91.67
2023-07-30T01:30:55.640Z,91.92
2023-07-30T01:31:55.587Z,91.92
2023-07-30T01:32:55.642Z,91.71
2023-07-30T01:33:55.528Z,91.41
2023-07-30T01:34:55.522Z,91.31
2023-07-30T01:35:55.551Z,91.31
2023-07-30T01:36:57.519Z,92.12
2023-07-30T01:37:55.467Z,91.57
2023-07-30T01:38:55.471Z,91.61
2023-07-30T01:39:55.472Z,91.31
2023-07-30T01:40:55.524Z,91.41
2023-07-30T01:41:55.440Z,91.92
2023-07-30T01:42:55.476Z,91.57
2023-07-30T01:43:55.418Z,91.71
2023-07-30T01:44:55.397Z,91.61
2023-07-30T01:45:55.527Z,91.92
2023-07-30T01:46:55.435Z,91.82
2023-07-30T01:47:55.407Z,92.12
2023-07-30T01:48:55.391Z,92.02
2023-07-30T01:49:55.344Z,91.82
2023-07-30T01:50:55.383Z,91.82
2023-07-30T01:51:55.317Z,91.61
2023-07-30T01:52:55.372Z,91.51
2023-07-30T01:53:55.312Z,91.31
2023-07-30T01:54:55.356Z,91.31
2023-07-30T01:55:55.292Z,91.71
2023-07-30T01:56:55.275Z,91.71
2023-07-30T01:57:55.314Z,91.92
2023-07-30T01:58:55.253Z,91.61
2023-07-30T01:59:55.232Z,91.82
2023-07-30T02:00:55.235Z,91.71
2023-07-30T02:01:55.291Z,91.92
2023-07-30T02:02:55.362Z,91.92
2023-07-30T02:03:55.220Z,92.32
2023-07-30T02:04:55.194Z,91.86
2023-07-30T02:05:55.221Z,92.12
2023-07-30T02:06:55.197Z,91.96
2023-07-30T02:07:55.140Z,92.22
2023-07-30T02:08:55.147Z,92.12
2023-07-30T02:09:55.182Z,92.16
2023-07-30T02:10:55.123Z,92.26
2023-07-30T02:11:55.123Z,92.57
2023-07-30T02:12:55.139Z,92.77
2023-07-30T02:13:55.066Z,92.67
2023-07-30T02:14:55.129Z,92.67
2023-07-30T02:15:55.177Z,92.77
2023-07-30T02:16:55.054Z,92.67
2023-07-30T02:17:55.099Z,92.67
2023-07-30T02:18:55.068Z,92.77
2023-07-30T02:19:55.016Z,92.47
2023-07-30T02:20:55.003Z,92.67
2023-07-30T02:21:55.048Z,92.67
2023-07-30T02:22:54.983Z,92.67
2023-07-30T02:23:55.000Z,92.57
2023-07-30T02:24:55.020Z,92.57
2023-07-30T02:25:54.954Z,92.77
2023-07-30T02:26:54.956Z,92.77
2023-07-30T02:27:55.001Z,92.87
2023-07-30T02:28:54.937Z,92.77
2023-07-30T02:29:54.900Z,92.57
2023-07-30T02:30:54.968Z,92.82
2023-07-30T02:31:54.938Z,92.61
2023-07-30T02:32:54.885Z,92.77
2023-07-30T02:33:54.866Z,92.67
2023-07-30T02:34:54.872Z,92.67
2023-07-30T02:35:54.880Z,92.06
2023-07-30T02:36:54.857Z,92.47
2023-07-30T02:37:54.832Z,92.16
2023-07-30T02:38:54.797Z,92.26
2023-07-30T02:39:54.787Z,92.67
2023-07-30T02:40:54.853Z,92.77
2023-07-30T02:41:54.794Z,92.87
2023-07-30T02:42:54.872Z,92.77
2023-07-30T02:43:54.807Z,92.67
2023-07-30T02:44:54.756Z,92.61
2023-07-30T02:45:54.838Z,92.31
2023-07-30T02:46:54.776Z,92.21
2023-07-30T02:47:54.825Z,92.61
2023-07-30T02:48:54.684Z,92.61
2023-07-30T02:49:54.763Z,92.71
2023-07-30T02:50:54.689Z,92.71
2023-07-30T02:51:54.667Z,92.91
2023-07-30T02:52:54.649Z,92.71
2023-07-30T02:53:54.638Z,92.82
2023-07-30T02:54:54.689Z,92.61
2023-07-30T02:55:54.647Z,92.61
2023-07-30T02:56:54.606Z,92.71
2023-07-30T02:57:54.685Z,93.02
2023-07-30T02:58:54.586Z,93.12
2023-07-30T02:59:54.653Z,93.42
2023-07-30T03:00:54.632Z,93.02
2023-07-30T03:01:54.554Z,92.51
2023-07-30T03:02:54.614Z,92.61
2023-07-30T03:03:54.535Z,92.61
2023-07-30T03:04:56.958Z,93.12
2023-07-30T03:05:54.554Z,93.32
2023-07-30T03:06:54.503Z,93.32
2023-07-30T03:07:54.529Z,92.82
2023-07-30T03:08:54.502Z,93.32
2023-07-30T03:09:54.528Z,93.02
2023-07-30T03:10:54.450Z,92.61
2023-07-30T03:11:54.495Z,92.65
2023-07-30T03:12:54.437Z,93.37
2023-07-30T03:13:54.427Z,93.57
2023-07-30T03:14:54.505Z,93.46
2023-07-30T03:15:54.449Z,93.16
2023-07-30T03:16:54.399Z,93.22
2023-07-30T03:17:54.534Z,93.16
2023-07-30T03:18:54.368Z,93.16
2023-07-30T03:19:54.552Z,93.26
2023-07-30T03:20:54.351Z,93.16
2023-07-30T03:21:54.390Z,92.86
2023-07-30T03:22:54.334Z,93.37
2023-07-30T03:23:54.355Z,92.96
2023-07-30T03:24:54.349Z,92.96
2023-07-30T03:25:54.314Z,93.37
2023-07-30T03:26:54.265Z,93.57
2023-07-30T03:27:54.358Z,93.57
2023-07-30T03:28:54.265Z,93.57
2023-07-30T03:29:54.304Z,93.67
2023-07-30T03:30:54.268Z,93.46
2023-07-30T03:31:54.245Z,93.46
2023-07-30T03:32:54.276Z,93.67
2023-07-30T03:33:54.195Z,93.87
2023-07-30T03:34:54.183Z,94.07
2023-07-30T03:35:54.178Z,94.07
2023-07-30T03:36:54.182Z,94.07
2023-07-30T03:37:54.244Z,93.97
2023-07-30T03:38:54.159Z,93.97
2023-07-30T03:39:54.165Z,93.46
2023-07-30T03:40:54.150Z,94.07
2023-07-30T03:41:54.117Z,94.38
2023-07-30T03:42:54.139Z,94.07
2023-07-30T03:43:54.166Z,94.27
2023-07-30T03:44:54.095Z,94.58
2023-07-30T03:45:54.069Z,94.78
2023-07-30T03:46:54.056Z,94.48
2023-07-30T03:47:54.139Z,94.38
2023-07-30T03:48:54.039Z,94.48
2023-07-30T03:49:54.098Z,94.58
2023-07-30T03:50:54.075Z,94.38
2023-07-30T03:51:54.014Z,94.27
2023-07-30T03:52:54.014Z,94.78
2023-07-30T03:53:53.995Z,94.78
2023-07-30T03:54:53.964Z,94.48
2023-07-30T03:55:54.042Z,94.68
2023-07-30T03:56:53.950Z,94.58
2023-07-30T03:57:53.942Z,94.58
2023-07-30T03:58:53.927Z,94.89
2023-07-30T03:59:53.938Z,95.09
2023-07-30T04:00:54.031Z,94.58
2023-07-30T04:01:53.915Z,94.58
2023-07-30T04:02:53.972Z,94.89
2023-07-30T04:03:53.976Z,94.98
2023-07-30T04:04:53.873Z,95.39
2023-07-30T04:05:53.899Z,94.78
2023-07-30T04:06:53.839Z,94.89
2023-07-30T04:07:53.833Z,95.19
2023-07-30T04:08:53.819Z,95.19
2023-07-30T04:09:53.859Z,95.79
2023-07-30T04:10:53.775Z,95.70
2023-07-30T04:11:53.790Z,95.59
2023-07-30T04:12:53.784Z,94.98
2023-07-30T04:13:54.004Z,95.70
2023-07-30T04:14:53.761Z,95.79
2023-07-30T04:15:53.812Z,95.39
2023-07-30T04:16:53.785Z,95.59
2023-07-30T04:17:53.735Z,95.59
2023-07-30T04:18:53.761Z,95.90
2023-07-30T04:19:53.768Z,95.29
2023-07-30T04:20:53.684Z,95.50
2023-07-30T04:21:53.722Z,95.50
2023-07-30T04:22:53.667Z,95.45
2023-07-30T04:23:53.699Z,95.50
2023-07-30T04:24:53.650Z,94.89
2023-07-30T04:25:53.659Z,94.89
2023-07-30T04:26:53.631Z,95.14
2023-07-30T04:27:53.696Z,95.04
2023-07-30T04:28:53.613Z,95.50
2023-07-30T04:29:53.615Z,95.39
2023-07-30T04:30:53.626Z,95.39
2023-07-30T04:31:53.648Z,95.35
2023-07-30T04:32:53.592Z,95.39
2023-07-30T04:33:53.550Z,95.55
2023-07-30T04:34:53.548Z,95.29
2023-07-30T04:35:53.568Z,95.19
2023-07-30T04:36:53.638Z,95.59
2023-07-30T04:37:53.562Z,95.25
2023-07-30T04:38:53.497Z,95.50
2023-07-30T04:39:53.508Z,94.89
2023-07-30T04:40:53.484Z,95.39
2023-07-30T04:41:53.472Z,95.19
2023-07-30T04:42:53.522Z,94.98
2023-07-30T04:43:53.474Z,95.09
2023-07-30T04:44:53.454Z,94.98
2023-07-30T04:45:53.426Z,95.50
2023-07-30T04:46:53.476Z,95.39
2023-07-30T04:47:53.493Z,95.39
2023-07-30T04:48:53.393Z,95.39
2023-07-30T04:49:53.402Z,95.50
2023-07-30T04:50:53.393Z,95.59
2023-07-30T04:51:53.374Z,95.55
2023-07-30T04:52:53.434Z,95.29
2023-07-30T04:53:53.348Z,95.39
2023-07-30T04:54:53.319Z,95.50
2023-07-30T04:55:53.337Z,95.70
2023-07-30T04:56:53.346Z,95.59
2023-07-30T04:57:53.295Z,95.59
2023-07-30T04:58:53.299Z,95.29
2023-07-30T04:59:53.343Z,94.94
2023-07-30T05:00:53.258Z,95.45
2023-07-30T05:01:53.367Z,95.65
2023-07-30T05:02:53.307Z,95.35
2023-07-30T05:03:53.350Z,95.14
2023-07-30T05:04:53.227Z,94.64
2023-07-30T05:05:53.257Z,94.59
2023-07-30T05:06:53.190Z,94.54
2023-07-30T05:07:53.271Z,94.09
2023-07-30T05:08:53.186Z,94.09
2023-07-30T05:09:53.159Z,94.24
2023-07-30T05:10:53.190Z,93.84
2023-07-30T05:11:53.141Z,92.52
2023-07-30T05:12:53.129Z,93.13
2023-07-30T05:13:53.197Z,92.63
2023-07-30T05:14:53.110Z,92.52
2023-07-30T05:15:53.113Z,92.83
2023-07-30T05:16:53.073Z,91.87
2023-07-30T05:17:53.150Z,91.37
2023-07-30T05:18:53.073Z,91.47
2023-07-30T05:19:53.141Z,91.37
2023-07-30T05:20:53.052Z,91.37
2023-07-30T05:21:53.040Z,90.56
2023-07-30T05:22:53.066Z,90.45
2023-07-30T05:23:53.039Z,90.56
2023-07-30T05:24:53.013Z,90.86
2023-07-30T05:25:53.031Z,90.72
2023-07-30T05:26:53.065Z,91.12
2023-07-30T05:27:52.980Z,90.62
2023-07-30T05:28:53.013Z,90.66
2023-07-30T05:29:52.966Z,90.52
2023-07-30T05:30:52.941Z,90.36
2023-07-30T05:31:52.973Z,90.52
2023-07-30T05:32:52.936Z,90.66
2023-07-30T05:33:52.958Z,90.56
2023-07-30T05:34:52.895Z,90.16
2023-07-30T05:35:52.912Z,90.56
2023-07-30T05:36:52.870Z,90.86
2023-07-30T05:37:52.845Z,90.66
2023-07-30T05:38:52.868Z,91.00
2023-07-30T05:39:52.888Z,90.70
2023-07-30T05:40:52.829Z,90.80
2023-07-30T05:41:53.016Z,90.80
2023-07-30T05:42:52.833Z,91.06
2023-07-30T05:43:52.832Z,91.37
2023-07-30T05:44:52.785Z,90.36
2023-07-30T05:45:52.830Z,90.56
2023-07-30T05:46:52.759Z,90.56
2023-07-30T05:47:52.806Z,90.56
2023-07-30T05:48:52.816Z,90.56
2023-07-30T05:49:52.720Z,90.45
2023-07-30T05:50:52.711Z,90.56
2023-07-30T05:51:52.753Z,90.45
2023-07-30T05:52:52.681Z,90.45
2023-07-30T05:53:52.675Z,91.06
2023-07-30T05:54:52.694Z,90.36
2023-07-30T05:55:52.712Z,90.96
2023-07-30T05:56:52.702Z,90.25
2023-07-30T05:57:52.641Z,90.45
2023-07-30T05:58:52.614Z,90.56
2023-07-30T05:59:52.610Z,90.31
2023-07-30T06:00:52.698Z,90.52
2023-07-30T06:01:52.699Z,90.76
2023-07-30T06:02:52.614Z,90.36
2023-07-30T06:03:52.646Z,90.66
2023-07-30T06:04:52.551Z,90.82
2023-07-30T06:05:52.632Z,90.86
2023-07-30T06:06:52.618Z,90.36
2023-07-30T06:07:52.562Z,90.36
2023-07-30T06:08:52.510Z,90.01
2023-07-30T06:09:52.515Z,89.85
2023-07-30T06:10:52.494Z,90.05
2023-07-30T06:11:52.591Z,90.36
2023-07-30T06:12:52.546Z,90.76
2023-07-30T06:13:52.457Z,90.56
2023-07-30T06:14:52.436Z,90.72
2023-07-30T06:15:52.654Z,90.76
2023-07-30T06:16:52.562Z,90.56
2023-07-30T06:17:52.466Z,90.96
2023-07-30T06:18:52.431Z,90.52
2023-07-30T06:19:52.428Z,90.41
2023-07-30T06:20:52.459Z,90.82
2023-07-30T06:21:52.435Z,90.62
2023-07-30T06:22:52.389Z,90.45
2023-07-30T06:23:52.384Z,90.56
2023-07-30T06:24:52.387Z,90.66
2023-07-30T06:25:52.428Z,90.31
2023-07-30T06:26:52.353Z,90.52
2023-07-30T06:27:52.521Z,90.21
2023-07-30T06:28:52.370Z,90.56
2023-07-30T06:29:52.294Z,90.56
2023-07-30T06:30:52.454Z,90.82
2023-07-30T06:31:52.324Z,90.56
2023-07-30T06:32:52.374Z,90.66
2023-07-30T06:33:52.293Z,91.02
2023-07-30T06:34:52.247Z,90.86
2023-07-30T06:35:52.234Z,90.66
2023-07-30T06:36:52.281Z,91.02
2023-07-30T06:37:52.238Z,90.82
2023-07-30T06:38:52.254Z,90.82
2023-07-30T06:39:52.187Z,90.72
2023-07-30T06:40:52.168Z,90.31
2023-07-30T06:41:52.162Z,90.52
2023-07-30T06:42:52.180Z,90.58
2023-07-30T06:43:52.214Z,90.41
2023-07-30T06:44:52.131Z,90.98
2023-07-30T06:45:52.122Z,90.58
2023-07-30T06:46:52.160Z,90.37
2023-07-30T06:47:52.292Z,90.58
2023-07-30T06:48:52.111Z,90.58
2023-07-30T06:49:52.082Z,90.67
2023-07-30T06:50:52.203Z,90.98
2023-07-30T06:51:52.149Z,90.98
2023-07-30T06:52:52.066Z,90.67
2023-07-30T06:53:52.046Z,91.18
2023-07-30T06:54:52.091Z,91.28
2023-07-30T06:55:52.019Z,91.08
2023-07-30T06:56:52.039Z,91.28
2023-07-30T06:57:52.029Z,90.67
2023-07-30T06:58:51.977Z,91.24
2023-07-30T06:59:52.096Z,91.18
2023-07-30T07:00:52.022Z,90.98
2023-07-30T07:01:51.951Z,91.28
2023-07-30T07:02:51.991Z,91.03
2023-07-30T07:03:52.005Z,91.03
2023-07-30T07:04:51.929Z,91.14
2023-07-30T07:05:51.910Z,91.34
2023-07-30T07:06:51.966Z,91.34
2023-07-30T07:07:51.886Z,91.14
2023-07-30T07:08:51.952Z,91.24
2023-07-30T07:09:51.873Z,90.73
2023-07-30T07:10:51.959Z,91.24
2023-07-30T07:11:51.844Z,91.14
2023-07-30T07:12:51.825Z,90.63
2023-07-30T07:13:51.851Z,90.94
2023-07-30T07:14:51.817Z,91.14
2023-07-30T07:15:51.826Z,91.24
2023-07-30T07:16:51.895Z,90.63
2023-07-30T07:17:51.816Z,91.24
2023-07-30T07:18:51.769Z,90.73
2023-07-30T07:19:51.833Z,91.14
2023-07-30T07:20:51.766Z,91.24
2023-07-30T07:21:51.865Z,91.14
2023-07-30T07:22:51.727Z,90.94
2023-07-30T07:23:51.886Z,91.14
2023-07-30T07:24:51.712Z,90.83
2023-07-30T07:25:51.705Z,90.73
2023-07-30T07:26:51.729Z,91.14
2023-07-30T07:27:51.679Z,90.94
2023-07-30T07:28:51.732Z,91.14
2023-07-30T07:29:51.682Z,91.24
2023-07-30T07:30:51.747Z,91.14
2023-07-30T07:31:51.644Z,91.34
2023-07-30T07:32:51.716Z,91.24
2023-07-30T07:33:51.638Z,91.34
2023-07-30T07:34:51.584Z,91.64
2023-07-30T07:35:51.649Z,92.05
2023-07-30T07:36:51.615Z,91.74
2023-07-30T07:37:51.620Z,91.94
2023-07-30T07:38:51.563Z,92.14
2023-07-30T07:39:51.564Z,91.85
2023-07-30T07:40:52.402Z,92.00
2023-07-30T07:41:51.533Z,91.90
2023-07-30T07:42:51.560Z,92.55
2023-07-30T07:43:51.512Z,91.90
2023-07-30T07:44:51.499Z,91.54
2023-07-30T07:45:51.504Z,91.50
2023-07-30T07:46:51.475Z,91.19
2023-07-30T07:47:51.755Z,91.50
2023-07-30T07:48:51.508Z,91.70
2023-07-30T07:49:51.435Z,91.50
2023-07-30T07:50:51.439Z,91.30
2023-07-30T07:51:51.432Z,90.99
2023-07-30T07:52:51.486Z,90.59
2023-07-30T07:53:51.391Z,90.59
2023-07-30T07:54:51.449Z,91.50
2023-07-30T07:55:51.391Z,91.30
2023-07-30T07:56:51.384Z,90.59
2023-07-30T07:57:51.430Z,91.39
2023-07-30T07:58:51.342Z,91.19
2023-07-30T07:59:51.354Z,91.05
2023-07-30T08:00:51.386Z,91.19
2023-07-30T08:01:51.398Z,90.55
2023-07-30T08:02:51.841Z,91.05
2023-07-30T08:03:51.391Z,90.55
2023-07-30T08:04:51.340Z,91.15
2023-07-30T08:05:51.306Z,90.24
2023-07-30T08:06:51.276Z,90.55
2023-07-30T08:07:51.301Z,90.75
2023-07-30T08:08:51.281Z,90.45
2023-07-30T08:09:51.304Z,90.95
2023-07-30T08:10:51.219Z,90.19
2023-07-30T08:11:51.208Z,90.14
2023-07-30T08:12:51.266Z,90.19
2023-07-30T08:13:51.192Z,90.14
2023-07-30T08:14:51.209Z,90.65
2023-07-30T08:15:51.202Z,90.65
2023-07-30T08:16:51.150Z,90.45
2023-07-30T08:17:51.330Z,89.94
2023-07-30T08:18:51.121Z,89.94
2023-07-30T08:19:51.190Z,90.34
2023-07-30T08:20:51.114Z,90.45
2023-07-30T08:21:51.111Z,89.94
2023-07-30T08:22:51.089Z,89.84
2023-07-30T08:23:51.078Z,90.04
2023-07-30T08:24:51.567Z,90.04
2023-07-30T08:25:51.317Z,89.59
2023-07-30T08:26:51.058Z,89.90
2023-07-30T08:27:51.055Z,89.19
2023-07-30T08:28:51.095Z,90.00
2023-07-30T08:29:51.018Z,90.00
2023-07-30T08:30:51.001Z,89.90
2023-07-30T08:31:51.118Z,90.00
2023-07-30T08:32:51.022Z,89.55
2023-07-30T08:33:51.015Z,89.79
2023-07-30T08:34:50.969Z,89.75
2023-07-30T08:35:50.987Z,89.35
2023-07-30T08:36:51.024Z,89.86
2023-07-30T08:37:50.919Z,89.45
2023-07-30T08:38:50.967Z,89.86
2023-07-30T08:39:50.910Z,89.86
2023-07-30T08:40:50.890Z,89.55
2023-07-30T08:41:50.903Z,89.65
2023-07-30T08:42:50.864Z,88.85
2023-07-30T08:43:50.893Z,89.05
2023-07-30T08:44:50.857Z,88.65
2023-07-30T08:45:50.867Z,89.86
2023-07-30T08:46:51.606Z,89.05
2023-07-30T08:47:50.852Z,88.85
2023-07-30T08:48:51.186Z,89.86
2023-07-30T08:49:50.851Z,88.90
2023-07-30T08:50:50.830Z,88.90
2023-07-30T08:51:50.780Z,89.41
2023-07-30T08:52:50.846Z,88.50
2023-07-30T08:53:50.746Z,88.50
2023-07-30T08:54:52.808Z,88.40
2023-07-30T08:55:50.731Z,88.50
2023-07-30T08:56:50.751Z,88.20
2023-07-30T08:57:50.704Z,87.85
2023-07-30T08:58:50.743Z,87.70
2023-07-30T08:59:50.714Z,87.90
2023-07-30T09:00:52.793Z,87.09
2023-07-30T09:01:50.736Z,87.60
2023-07-30T09:02:50.687Z,87.40
2023-07-30T09:03:50.659Z,88.20
2023-07-30T09:04:50.688Z,87.80
2023-07-30T09:05:50.643Z,87.29
2023-07-30T09:06:53.521Z,86.65
2023-07-30T09:07:50.843Z,87.45
2023-07-30T09:08:50.646Z,87.96
2023-07-30T09:09:50.568Z,87.55
2023-07-30T09:10:50.559Z,87.35
2023-07-30T09:11:50.573Z,86.95
2023-07-30T09:12:50.554Z,87.55
2023-07-30T09:13:50.603Z,86.85
2023-07-30T09:14:50.539Z,85.94
2023-07-30T09:15:50.543Z,86.85
2023-07-30T09:16:50.509Z,86.75
2023-07-30T09:17:50.530Z,86.44
2023-07-30T09:18:52.833Z,86.55
2023-07-30T09:19:50.473Z,86.55
2023-07-30T09:20:50.484Z,86.24
2023-07-30T09:21:50.455Z,86.65
2023-07-30T09:22:50.547Z,85.94
2023-07-30T09:23:50.487Z,86.04
2023-07-30T09:24:51.557Z,86.65
2023-07-30T09:25:50.431Z,86.44
2023-07-30T09:26:50.483Z,87.45
2023-07-30T09:27:50.436Z,87.15
2023-07-30T09:28:50.373Z,87.96
2023-07-30T09:29:50.544Z,87.51
2023-07-30T09:30:51.674Z,86.30
2023-07-30T09:31:50.845Z,87.51
2023-07-30T09:32:50.486Z,87.21
2023-07-30T09:33:50.327Z,87.51
2023-07-30T09:34:50.436Z,86.77
2023-07-30T09:35:50.358Z,87.67
2023-07-30T09:36:52.495Z,87.57
2023-07-30T09:37:50.294Z,87.23
2023-07-30T09:38:50.273Z,87.02
2023-07-30T09:39:50.282Z,86.63
2023-07-30T09:40:50.397Z,85.17
2023-07-30T09:41:50.284Z,84.77
2023-07-30T09:42:52.215Z,84.77
2023-07-30T09:43:50.209Z,84.97
2023-07-30T09:44:50.596Z,83.67
2023-07-30T09:45:50.377Z,84.17
2023-07-30T09:46:50.306Z,84.47
2023-07-30T09:47:50.279Z,84.17
2023-07-30T09:48:50.155Z,83.47
2023-07-30T09:49:50.172Z,83.97
2023-07-30T09:50:51.201Z,84.77
2023-07-30T09:51:50.133Z,85.38
2023-07-30T09:52:50.211Z,84.17
2023-07-30T09:53:50.148Z,84.37
2023-07-30T09:54:52.466Z,84.07
2023-07-30T09:55:50.125Z,83.97
2023-07-30T09:56:50.084Z,84.13
2023-07-30T09:57:50.164Z,83.63
2023-07-30T09:58:50.376Z,82.92
2023-07-30T09:59:50.516Z,82.42
2023-07-30T10:00:50.131Z,83.03
2023-07-30T10:01:50.048Z,83.12
2023-07-30T10:02:50.146Z,82.52
2023-07-30T10:03:50.012Z,82.08
2023-07-30T10:04:50.098Z,82.08
2023-07-30T10:05:50.012Z,81.48
2023-07-30T10:06:49.994Z,81.78
2023-07-30T10:07:50.041Z,82.48
2023-07-30T10:08:49.960Z,82.08
2023-07-30T10:09:49.948Z,81.27
2023-07-30T10:10:49.944Z,81.27
2023-07-30T10:11:51.504Z,81.07
2023-07-30T10:12:50.004Z,80.74
2023-07-30T10:13:49.927Z,81.88
2023-07-30T10:14:49.902Z,81.18
2023-07-30T10:15:49.876Z,81.54
2023-07-30T10:16:49.871Z,81.44
2023-07-30T10:17:49.913Z,80.43
2023-07-30T10:18:49.923Z,80.74
2023-07-30T10:19:49.833Z,80.24
2023-07-30T10:20:49.828Z,80.83
2023-07-30T10:21:49.813Z,80.13
2023-07-30T10:22:49.824Z,79.93
2023-07-30T10:23:49.841Z,79.49
2023-07-30T10:24:50.780Z,77.83
2023-07-30T10:25:49.769Z,78.73
2023-07-30T10:26:49.752Z,79.23
2023-07-30T10:27:50.845Z,78.93
2023-07-30T10:28:49.776Z,78.42
2023-07-30T10:29:49.772Z,78.73
2023-07-30T10:30:49.734Z,78.69
2023-07-30T10:31:49.701Z,78.09
2023-07-30T10:32:49.718Z,77.59
2023-07-30T10:33:49.738Z,77.79
2023-07-30T10:34:49.781Z,77.19
2023-07-30T10:35:49.663Z,77.19
2023-07-30T10:36:49.707Z,77.69
2023-07-30T10:37:49.661Z,77.69
2023-07-30T10:38:49.673Z,77.09
2023-07-30T10:39:49.616Z,78.25
2023-07-30T10:40:49.731Z,76.45
2023-07-30T10:41:49.735Z,76.34
2023-07-30T10:42:49.666Z,77.25
2023-07-30T10:43:49.588Z,75.51
2023-07-30T10:44:49.568Z,75.51
2023-07-30T10:45:49.550Z,75.71
2023-07-30T10:46:49.737Z,75.21
2023-07-30T10:47:49.650Z,75.67
2023-07-30T10:48:49.766Z,74.90
2023-07-30T10:49:49.544Z,75.17
2023-07-30T10:50:49.490Z,75.57
2023-07-30T10:51:49.520Z,75.93
2023-07-30T10:52:49.465Z,75.63
2023-07-30T10:53:49.494Z,76.74
2023-07-30T10:54:49.530Z,74.20
2023-07-30T10:55:49.474Z,73.70
2023-07-30T10:56:49.465Z,71.80
2023-07-30T10:57:49.429Z,71.59
2023-07-30T10:58:49.467Z,70.89
2023-07-30T10:59:49.409Z,69.99
2023-07-30T11:00:49.392Z,70.50
2023-07-30T11:01:49.470Z,71.80
2023-07-30T11:02:49.496Z,70.89
2023-07-30T11:03:49.505Z,71.39
2023-07-30T11:04:49.341Z,71.39
2023-07-30T11:05:49.337Z,70.09
2023-07-30T11:06:49.388Z,69.99
2023-07-30T11:07:49.324Z,69.59
2023-07-30T11:08:49.312Z,70.03
2023-07-30T11:09:49.353Z,70.32
2023-07-30T11:10:49.296Z,70.93
2023-07-30T11:11:49.280Z,71.03
2023-07-30T11:12:49.303Z,70.32
2023-07-30T11:13:49.252Z,70.73
2023-07-30T11:14:50.299Z,69.82
2023-07-30T11:15:49.239Z,69.12
2023-07-30T11:16:49.233Z,70.03
2023-07-30T11:17:49.307Z,70.29
2023-07-30T11:18:49.263Z,69.93
2023-07-30T11:19:49.197Z,70.89
2023-07-30T11:20:49.197Z,69.79
2023-07-30T11:21:50.682Z,69.99
2023-07-30T11:22:49.155Z,69.99
2023-07-30T11:23:49.190Z,69.69
2023-07-30T11:24:49.132Z,70.09
2023-07-30T11:25:49.128Z,71.19
2023-07-30T11:26:49.219Z,71.09
2023-07-30T11:27:49.106Z,70.19
2023-07-30T11:28:49.115Z,68.79
2023-07-30T11:29:49.081Z,69.42
2023-07-30T11:30:49.140Z,69.89
2023-07-30T11:31:49.105Z,70.50
2023-07-30T11:32:49.183Z,70.53
2023-07-30T11:33:49.343Z,69.82
2023-07-30T11:34:49.085Z,70.79
2023-07-30T11:35:49.025Z,70.53
2023-07-30T11:36:49.888Z,70.69
2023-07-30T11:37:48.998Z,70.50
2023-07-30T11:38:49.124Z,70.79
2023-07-30T11:39:49.338Z,71.09
2023-07-30T11:40:49.044Z,69.46
2023-07-30T11:41:48.979Z,67.55
2023-07-30T11:42:48.987Z,67.86
2023-07-30T11:43:48.950Z,66.36
2023-07-30T11:44:49.011Z,65.86
2023-07-30T11:45:48.911Z,66.16
2023-07-30T11:46:48.978Z,66.46
2023-07-30T11:47:48.964Z,65.95
2023-07-30T11:48:48.900Z,66.19
2023-07-30T11:49:48.915Z,65.99
2023-07-30T11:50:48.855Z,66.78
2023-07-30T11:51:48.874Z,67.09
2023-07-30T11:52:49.064Z,67.89
2023-07-30T11:53:48.841Z,67.29
2023-07-30T11:54:48.812Z,66.78
2023-07-30T11:55:48.821Z,66.32
2023-07-30T11:56:48.789Z,66.32
2023-07-30T11:57:48.809Z,67.52
2023-07-30T11:58:48.829Z,67.85
2023-07-30T11:59:48.842Z,68.46
2023-07-30T12:00:48.759Z,67.65
2023-07-30T12:01:48.914Z,68.19
2023-07-30T12:02:48.760Z,68.49
2023-07-30T12:03:48.867Z,69.09
2023-07-30T12:04:53.220Z,69.09
2023-07-30T12:05:49.675Z,69.39
2023-07-30T12:06:48.767Z,69.39
2023-07-30T12:07:48.699Z,69.19
2023-07-30T12:08:48.741Z,69.69
2023-07-30T12:09:48.642Z,69.69
2023-07-30T12:10:48.704Z,70.16
2023-07-30T12:11:48.644Z,70.46
2023-07-30T12:12:48.610Z,69.76
2023-07-30T12:13:48.651Z,69.96
2023-07-30T12:14:48.639Z,69.76
2023-07-30T12:15:48.600Z,69.66
2023-07-30T12:16:48.575Z,69.35
2023-07-30T12:17:48.632Z,69.46
2023-07-30T12:18:48.554Z,68.55
2023-07-30T12:19:48.611Z,69.32
2023-07-30T12:20:48.571Z,69.73
2023-07-30T12:21:48.534Z,69.53
2023-07-30T12:22:48.596Z,69.93
2023-07-30T12:23:48.491Z,69.73
2023-07-30T12:24:48.528Z,70.12
2023-07-30T12:25:48.500Z,69.93
2023-07-30T12:26:48.465Z,70.53
2023-07-30T12:27:48.502Z,70.79
2023-07-30T12:28:48.465Z,70.50
2023-07-30T12:29:48.457Z,70.50
2023-07-30T12:30:48.418Z,70.29
2023-07-30T12:31:48.598Z,69.39
2023-07-30T12:32:48.456Z,68.39
2023-07-30T12:33:48.393Z,68.73
2023-07-30T12:34:48.495Z,68.49
2023-07-30T12:35:48.552Z,68.59
2023-07-30T12:36:48.351Z,69.42
2023-07-30T12:37:48.444Z,68.52
2023-07-30T12:38:48.378Z,69.42
2023-07-30T12:39:48.327Z,69.82
2023-07-30T12:40:48.369Z,69.29
2023-07-30T12:41:48.300Z,68.73
2023-07-30T12:42:48.316Z,68.89
2023-07-30T12:43:48.329Z,69.23
2023-07-30T12:44:48.290Z,69.09
2023-07-30T12:45:48.345Z,68.62
2023-07-30T12:46:48.274Z,68.12
2023-07-30T12:47:48.262Z,68.32
2023-07-30T12:48:48.285Z,68.12
2023-07-30T12:49:48.232Z,67.72
2023-07-30T12:50:48.229Z,68.22
2023-07-30T12:51:48.283Z,67.72
2023-07-30T12:52:48.184Z,68.52